sensor_id;sensor_type;location;lat;lon;timestamp;P1;durP1;ratioP1;P2;durP2;ratioP2
45650;SDS011;31365;48.858;8.530;2022-12-18T00:00:06;31.73;;;16.83;;
45650;SDS011;31365;48.858;8.530;2022-12-18T00:02:39;24.27;;;16.33;;
45650;SDS011;31365;48.858;8.530;2022-12-18T00:05:07;19.73;;;13.43;;
45650;SDS011;31365;48.858;8.530;2022-12-18T00:07:36;17.80;;;12.23;;
45650;SDS011;31365;48.858;8.530;2022-12-18T00:10:05;17.67;;;12.23;;
45650;SDS011;31365;48.858;8.530;2022-12-18T00:12:35;19.57;;;13.00;;
45650;SDS011;31365;48.858;8.530;2022-12-18T00:15:04;16.40;;;11.50;;
45650;SDS011;31365;48.858;8.530;2022-12-18T00:17:34;17.40;;;12.20;;
45650;SDS011;31365;48.858;8.530;2022-12-18T00:20:03;17.07;;;11.10;;
45650;SDS011;31365;48.858;8.530;2022-12-18T00:22:33;17.30;;;11.37;;
45650;SDS011;31365;48.858;8.530;2022-12-18T00:25:01;12.27;;;10.13;;
45650;SDS011;31365;48.858;8.530;2022-12-18T00:27:31;14.53;;;10.97;;
45650;SDS011;31365;48.858;8.530;2022-12-18T00:30:00;14.23;;;10.00;;
45650;SDS011;31365;48.858;8.530;2022-12-18T00:32:28;15.07;;;9.73;;
45650;SDS011;31365;48.858;8.530;2022-12-18T00:34:57;13.17;;;10.40;;
45650;SDS011;31365;48.858;8.530;2022-12-18T00:37:25;15.17;;;10.77;;
45650;SDS011;31365;48.858;8.530;2022-12-18T00:39:54;15.63;;;11.23;;
45650;SDS011;31365;48.858;8.530;2022-12-18T00:42:22;15.77;;;10.90;;
45650;SDS011;31365;48.858;8.530;2022-12-18T00:45:11;25.43;;;16.50;;
45650;SDS011;31365;48.858;8.530;2022-12-18T00:47:40;26.67;;;14.37;;
45650;SDS011;31365;48.858;8.530;2022-12-18T00:50:08;19.40;;;13.37;;
45650;SDS011;31365;48.858;8.530;2022-12-18T00:52:37;26.77;;;15.97;;
45650;SDS011;31365;48.858;8.530;2022-12-18T00:55:09;23.27;;;15.30;;
45650;SDS011;31365;48.858;8.530;2022-12-18T00:57:38;27.40;;;17.50;;
45650;SDS011;31365;48.858;8.530;2022-12-18T01:00:09;34.17;;;20.90;;
45650;SDS011;31365;48.858;8.530;2022-12-18T01:02:42;36.87;;;20.07;;
45650;SDS011;31365;48.858;8.530;2022-12-18T01:05:12;31.70;;;20.07;;
45650;SDS011;31365;48.858;8.530;2022-12-18T01:07:42;33.30;;;19.63;;
45650;SDS011;31365;48.858;8.530;2022-12-18T01:10:11;34.87;;;20.30;;
45650;SDS011;31365;48.858;8.530;2022-12-18T01:12:41;32.30;;;19.10;;
45650;SDS011;31365;48.858;8.530;2022-12-18T01:15:11;25.90;;;15.90;;
45650;SDS011;31365;48.858;8.530;2022-12-18T01:17:41;26.27;;;15.83;;
45650;SDS011;31365;48.858;8.530;2022-12-18T01:20:11;31.73;;;18.67;;
45650;SDS011;31365;48.858;8.530;2022-12-18T01:22:40;26.40;;;15.73;;
45650;SDS011;31365;48.858;8.530;2022-12-18T01:25:08;18.53;;;12.73;;
45650;SDS011;31365;48.858;8.530;2022-12-18T01:27:37;16.47;;;11.43;;
45650;SDS011;31365;48.858;8.530;2022-12-18T01:30:06;19.40;;;13.00;;
45650;SDS011;31365;48.858;8.530;2022-12-18T01:32:38;20.27;;;12.70;;
45650;SDS011;31365;48.858;8.530;2022-12-18T01:35:06;20.23;;;11.87;;
45650;SDS011;31365;48.858;8.530;2022-12-18T01:37:36;15.90;;;11.47;;
45650;SDS011;31365;48.858;8.530;2022-12-18T01:40:05;14.13;;;10.40;;
45650;SDS011;31365;48.858;8.530;2022-12-18T01:42:35;13.27;;;10.20;;
45650;SDS011;31365;48.858;8.530;2022-12-18T01:45:06;12.17;;;9.20;;
45650;SDS011;31365;48.858;8.530;2022-12-18T01:47:53;11.47;;;7.60;;
45650;SDS011;31365;48.858;8.530;2022-12-18T01:50:28;18.23;;;13.40;;
45650;SDS011;31365;48.858;8.530;2022-12-18T01:53:02;12.30;;;9.10;;
45650;SDS011;31365;48.858;8.530;2022-12-18T01:55:40;10.43;;;8.50;;
45650;SDS011;31365;48.858;8.530;2022-12-18T01:58:19;10.37;;;7.77;;
45650;SDS011;31365;48.858;8.530;2022-12-18T02:00:58;11.77;;;7.63;;
45650;SDS011;31365;48.858;8.530;2022-12-18T02:03:28;11.23;;;7.87;;
45650;SDS011;31365;48.858;8.530;2022-12-18T02:05:57;9.57;;;8.00;;
45650;SDS011;31365;48.858;8.530;2022-12-18T02:08:38;9.87;;;7.73;;
45650;SDS011;31365;48.858;8.530;2022-12-18T02:11:17;11.13;;;7.60;;
45650;SDS011;31365;48.858;8.530;2022-12-18T02:13:57;10.03;;;6.93;;
45650;SDS011;31365;48.858;8.530;2022-12-18T02:16:42;10.40;;;7.67;;
45650;SDS011;31365;48.858;8.530;2022-12-18T02:19:27;10.37;;;7.90;;
45650;SDS011;31365;48.858;8.530;2022-12-18T02:22:29;9.57;;;7.03;;
45650;SDS011;31365;48.858;8.530;2022-12-18T02:25:20;9.93;;;7.87;;
45650;SDS011;31365;48.858;8.530;2022-12-18T02:28:15;9.97;;;7.07;;
45650;SDS011;31365;48.858;8.530;2022-12-18T02:30:50;9.67;;;7.27;;
45650;SDS011;31365;48.858;8.530;2022-12-18T02:33:23;8.53;;;6.93;;
45650;SDS011;31365;48.858;8.530;2022-12-18T02:35:55;9.37;;;7.10;;
45650;SDS011;31365;48.858;8.530;2022-12-18T02:38:29;9.13;;;6.87;;
45650;SDS011;31365;48.858;8.530;2022-12-18T02:41:06;9.93;;;7.00;;
45650;SDS011;31365;48.858;8.530;2022-12-18T02:43:36;8.37;;;6.97;;
45650;SDS011;31365;48.858;8.530;2022-12-18T02:46:20;10.10;;;7.80;;
45650;SDS011;31365;48.858;8.530;2022-12-18T02:49:06;8.43;;;6.67;;
45650;SDS011;31365;48.858;8.530;2022-12-18T02:52:02;8.83;;;6.60;;
45650;SDS011;31365;48.858;8.530;2022-12-18T02:54:51;8.83;;;6.90;;
45650;SDS011;31365;48.858;8.530;2022-12-18T02:57:39;8.20;;;6.47;;
45650;SDS011;31365;48.858;8.530;2022-12-18T03:00:21;8.20;;;6.67;;
45650;SDS011;31365;48.858;8.530;2022-12-18T03:03:02;8.70;;;6.67;;
45650;SDS011;31365;48.858;8.530;2022-12-18T03:05:41;9.70;;;6.57;;
45650;SDS011;31365;48.858;8.530;2022-12-18T03:08:18;8.70;;;6.57;;
45650;SDS011;31365;48.858;8.530;2022-12-18T03:10:54;10.43;;;6.97;;
45650;SDS011;31365;48.858;8.530;2022-12-18T03:13:32;10.27;;;7.17;;
45650;SDS011;31365;48.858;8.530;2022-12-18T03:16:07;11.33;;;7.13;;
45650;SDS011;31365;48.858;8.530;2022-12-18T03:18:44;8.97;;;6.10;;
45650;SDS011;31365;48.858;8.530;2022-12-18T03:21:14;10.27;;;6.40;;
45650;SDS011;31365;48.858;8.530;2022-12-18T03:23:50;9.93;;;6.60;;
45650;SDS011;31365;48.858;8.530;2022-12-18T03:26:24;8.67;;;6.67;;
45650;SDS011;31365;48.858;8.530;2022-12-18T03:29:00;9.20;;;6.10;;
45650;SDS011;31365;48.858;8.530;2022-12-18T03:31:35;11.77;;;6.90;;
45650;SDS011;31365;48.858;8.530;2022-12-18T03:34:09;7.23;;;5.90;;
45650;SDS011;31365;48.858;8.530;2022-12-18T03:36:45;9.17;;;6.07;;
45650;SDS011;31365;48.858;8.530;2022-12-18T03:39:14;8.03;;;5.50;;
45650;SDS011;31365;48.858;8.530;2022-12-18T03:41:51;7.87;;;6.43;;
45650;SDS011;31365;48.858;8.530;2022-12-18T03:44:38;10.93;;;7.07;;
45650;SDS011;31365;48.858;8.530;2022-12-18T03:47:19;8.50;;;6.43;;
45650;SDS011;31365;48.858;8.530;2022-12-18T03:50:03;8.57;;;6.73;;
45650;SDS011;31365;48.858;8.530;2022-12-18T03:52:45;8.23;;;5.53;;
45650;SDS011;31365;48.858;8.530;2022-12-18T03:55:20;8.47;;;6.10;;
45650;SDS011;31365;48.858;8.530;2022-12-18T03:57:58;8.37;;;6.07;;
45650;SDS011;31365;48.858;8.530;2022-12-18T04:00:38;8.03;;;5.77;;
45650;SDS011;31365;48.858;8.530;2022-12-18T04:03:10;8.97;;;6.30;;
45650;SDS011;31365;48.858;8.530;2022-12-18T04:05:45;8.00;;;5.77;;
45650;SDS011;31365;48.858;8.530;2022-12-18T04:08:20;8.43;;;6.13;;
45650;SDS011;31365;48.858;8.530;2022-12-18T04:11:00;7.53;;;5.97;;
45650;SDS011;31365;48.858;8.530;2022-12-18T04:13:32;7.47;;;6.00;;
45650;SDS011;31365;48.858;8.530;2022-12-18T04:16:07;6.97;;;5.77;;
45650;SDS011;31365;48.858;8.530;2022-12-18T04:18:41;11.03;;;6.90;;
45650;SDS011;31365;48.858;8.530;2022-12-18T04:21:10;9.17;;;6.33;;
45650;SDS011;31365;48.858;8.530;2022-12-18T04:23:38;10.83;;;6.60;;
45650;SDS011;31365;48.858;8.530;2022-12-18T04:26:07;8.90;;;6.30;;
45650;SDS011;31365;48.858;8.530;2022-12-18T04:28:56;8.40;;;6.30;;
45650;SDS011;31365;48.858;8.530;2022-12-18T04:31:24;8.93;;;5.90;;
45650;SDS011;31365;48.858;8.530;2022-12-18T04:33:57;7.60;;;5.77;;
45650;SDS011;31365;48.858;8.530;2022-12-18T04:36:27;8.67;;;5.60;;
45650;SDS011;31365;48.858;8.530;2022-12-18T04:38:56;8.43;;;6.23;;
45650;SDS011;31365;48.858;8.530;2022-12-18T04:41:25;8.37;;;5.87;;
45650;SDS011;31365;48.858;8.530;2022-12-18T04:43:53;11.30;;;6.47;;
45650;SDS011;31365;48.858;8.530;2022-12-18T04:46:22;7.80;;;5.60;;
45650;SDS011;31365;48.858;8.530;2022-12-18T04:48:51;8.50;;;5.57;;
45650;SDS011;31365;48.858;8.530;2022-12-18T04:51:20;7.70;;;5.60;;
45650;SDS011;31365;48.858;8.530;2022-12-18T04:53:52;9.20;;;6.07;;
45650;SDS011;31365;48.858;8.530;2022-12-18T04:56:20;7.60;;;5.40;;
45650;SDS011;31365;48.858;8.530;2022-12-18T04:58:49;8.77;;;5.83;;
45650;SDS011;31365;48.858;8.530;2022-12-18T05:01:18;6.27;;;5.60;;
45650;SDS011;31365;48.858;8.530;2022-12-18T05:03:47;7.03;;;5.77;;
45650;SDS011;31365;48.858;8.530;2022-12-18T05:06:16;8.23;;;6.10;;
45650;SDS011;31365;48.858;8.530;2022-12-18T05:08:46;8.20;;;5.90;;
45650;SDS011;31365;48.858;8.530;2022-12-18T05:11:14;9.53;;;5.67;;
45650;SDS011;31365;48.858;8.530;2022-12-18T05:13:43;7.43;;;5.60;;
45650;SDS011;31365;48.858;8.530;2022-12-18T05:16:13;13.83;;;5.40;;
45650;SDS011;31365;48.858;8.530;2022-12-18T05:18:42;7.47;;;5.70;;
45650;SDS011;31365;48.858;8.530;2022-12-18T05:24:56;8.13;;;5.27;;
45650;SDS011;31365;48.858;8.530;2022-12-18T05:27:24;6.63;;;5.07;;
45650;SDS011;31365;48.858;8.530;2022-12-18T05:29:52;6.77;;;5.03;;
45650;SDS011;31365;48.858;8.530;2022-12-18T05:32:21;8.10;;;5.80;;
45650;SDS011;31365;48.858;8.530;2022-12-18T05:34:49;7.40;;;5.27;;
45650;SDS011;31365;48.858;8.530;2022-12-18T05:37:18;6.87;;;5.00;;
45650;SDS011;31365;48.858;8.530;2022-12-18T05:39:47;8.80;;;5.67;;
45650;SDS011;31365;48.858;8.530;2022-12-18T05:42:17;7.77;;;5.67;;
45650;SDS011;31365;48.858;8.530;2022-12-18T05:44:45;7.43;;;5.43;;
45650;SDS011;31365;48.858;8.530;2022-12-18T05:47:14;8.17;;;5.37;;
45650;SDS011;31365;48.858;8.530;2022-12-18T05:49:42;9.60;;;6.00;;
45650;SDS011;31365;48.858;8.530;2022-12-18T05:52:11;8.47;;;5.67;;
45650;SDS011;31365;48.858;8.530;2022-12-18T05:54:40;7.70;;;5.33;;
45650;SDS011;31365;48.858;8.530;2022-12-18T05:57:08;10.20;;;5.53;;
45650;SDS011;31365;48.858;8.530;2022-12-18T05:59:38;9.47;;;5.87;;
45650;SDS011;31365;48.858;8.530;2022-12-18T06:02:06;8.70;;;5.60;;
45650;SDS011;31365;48.858;8.530;2022-12-18T06:04:35;9.60;;;6.03;;
45650;SDS011;31365;48.858;8.530;2022-12-18T06:07:04;9.77;;;5.90;;
45650;SDS011;31365;48.858;8.530;2022-12-18T06:09:32;9.27;;;6.63;;
45650;SDS011;31365;48.858;8.530;2022-12-18T06:12:01;13.93;;;7.70;;
45650;SDS011;31365;48.858;8.530;2022-12-18T06:14:29;13.37;;;7.87;;
45650;SDS011;31365;48.858;8.530;2022-12-18T06:16:59;13.17;;;7.43;;
45650;SDS011;31365;48.858;8.530;2022-12-18T06:19:27;15.63;;;7.67;;
45650;SDS011;31365;48.858;8.530;2022-12-18T06:21:55;10.47;;;6.40;;
45650;SDS011;31365;48.858;8.530;2022-12-18T06:24:25;10.33;;;6.97;;
45650;SDS011;31365;48.858;8.530;2022-12-18T06:26:53;10.13;;;7.17;;
45650;SDS011;31365;48.858;8.530;2022-12-18T06:29:22;7.93;;;6.33;;
45650;SDS011;31365;48.858;8.530;2022-12-18T06:31:50;10.27;;;6.33;;
45650;SDS011;31365;48.858;8.530;2022-12-18T06:34:20;9.67;;;6.83;;
45650;SDS011;31365;48.858;8.530;2022-12-18T06:36:48;10.50;;;6.90;;
45650;SDS011;31365;48.858;8.530;2022-12-18T06:39:17;7.27;;;6.30;;
45650;SDS011;31365;48.858;8.530;2022-12-18T06:41:46;8.63;;;6.57;;
45650;SDS011;31365;48.858;8.530;2022-12-18T06:44:14;14.83;;;9.23;;
45650;SDS011;31365;48.858;8.530;2022-12-18T06:46:42;14.73;;;10.57;;
45650;SDS011;31365;48.858;8.530;2022-12-18T06:49:10;13.73;;;9.77;;
45650;SDS011;31365;48.858;8.530;2022-12-18T06:51:41;14.07;;;9.57;;
45650;SDS011;31365;48.858;8.530;2022-12-18T06:54:11;13.20;;;7.77;;
45650;SDS011;31365;48.858;8.530;2022-12-18T06:56:39;11.17;;;7.70;;
45650;SDS011;31365;48.858;8.530;2022-12-18T06:59:07;11.83;;;8.30;;
45650;SDS011;31365;48.858;8.530;2022-12-18T07:01:36;15.03;;;9.40;;
45650;SDS011;31365;48.858;8.530;2022-12-18T07:04:04;15.30;;;9.67;;
45650;SDS011;31365;48.858;8.530;2022-12-18T07:06:33;13.83;;;8.80;;
45650;SDS011;31365;48.858;8.530;2022-12-18T07:09:03;17.67;;;9.80;;
45650;SDS011;31365;48.858;8.530;2022-12-18T07:11:32;11.73;;;8.53;;
45650;SDS011;31365;48.858;8.530;2022-12-18T07:14:00;11.67;;;8.63;;
45650;SDS011;31365;48.858;8.530;2022-12-18T07:16:29;12.50;;;8.80;;
45650;SDS011;31365;48.858;8.530;2022-12-18T07:18:58;15.67;;;8.50;;
45650;SDS011;31365;48.858;8.530;2022-12-18T07:21:26;11.73;;;8.50;;
45650;SDS011;31365;48.858;8.530;2022-12-18T07:23:54;12.47;;;8.90;;
45650;SDS011;31365;48.858;8.530;2022-12-18T07:26:25;14.50;;;9.30;;
45650;SDS011;31365;48.858;8.530;2022-12-18T07:28:54;14.47;;;9.20;;
45650;SDS011;31365;48.858;8.530;2022-12-18T07:31:24;13.37;;;9.30;;
45650;SDS011;31365;48.858;8.530;2022-12-18T07:33:54;13.67;;;9.23;;
45650;SDS011;31365;48.858;8.530;2022-12-18T07:36:23;11.60;;;9.53;;
45650;SDS011;31365;48.858;8.530;2022-12-18T07:38:52;14.80;;;9.57;;
45650;SDS011;31365;48.858;8.530;2022-12-18T07:41:20;13.20;;;9.73;;
45650;SDS011;31365;48.858;8.530;2022-12-18T07:43:51;15.67;;;10.20;;
45650;SDS011;31365;48.858;8.530;2022-12-18T07:46:19;14.60;;;9.20;;
45650;SDS011;31365;48.858;8.530;2022-12-18T07:48:48;15.87;;;9.83;;
45650;SDS011;31365;48.858;8.530;2022-12-18T07:51:17;14.27;;;10.30;;
45650;SDS011;31365;48.858;8.530;2022-12-18T07:53:47;15.43;;;10.13;;
45650;SDS011;31365;48.858;8.530;2022-12-18T07:56:18;16.47;;;11.33;;
45650;SDS011;31365;48.858;8.530;2022-12-18T07:58:55;18.07;;;12.70;;
45650;SDS011;31365;48.858;8.530;2022-12-18T08:01:26;13.77;;;9.60;;
45650;SDS011;31365;48.858;8.530;2022-12-18T08:03:54;15.37;;;10.93;;
45650;SDS011;31365;48.858;8.530;2022-12-18T08:06:25;13.37;;;9.93;;
45650;SDS011;31365;48.858;8.530;2022-12-18T08:08:54;18.17;;;10.53;;
45650;SDS011;31365;48.858;8.530;2022-12-18T08:11:24;14.47;;;9.23;;
45650;SDS011;31365;48.858;8.530;2022-12-18T08:13:57;16.27;;;10.00;;
45650;SDS011;31365;48.858;8.530;2022-12-18T08:16:26;14.63;;;10.07;;
45650;SDS011;31365;48.858;8.530;2022-12-18T08:18:55;15.37;;;11.67;;
45650;SDS011;31365;48.858;8.530;2022-12-18T08:21:24;16.90;;;12.47;;
45650;SDS011;31365;48.858;8.530;2022-12-18T08:23:54;16.93;;;11.57;;
45650;SDS011;31365;48.858;8.530;2022-12-18T08:26:26;15.87;;;11.83;;
45650;SDS011;31365;48.858;8.530;2022-12-18T08:28:59;18.53;;;12.17;;
45650;SDS011;31365;48.858;8.530;2022-12-18T08:31:28;18.50;;;12.47;;
45650;SDS011;31365;48.858;8.530;2022-12-18T08:33:59;17.43;;;11.83;;
45650;SDS011;31365;48.858;8.530;2022-12-18T08:36:27;16.73;;;11.80;;
45650;SDS011;31365;48.858;8.530;2022-12-18T08:38:55;19.13;;;11.97;;
45650;SDS011;31365;48.858;8.530;2022-12-18T08:41:25;19.00;;;11.60;;
45650;SDS011;31365;48.858;8.530;2022-12-18T08:43:54;26.37;;;12.47;;
45650;SDS011;31365;48.858;8.530;2022-12-18T08:46:43;15.17;;;11.47;;
45650;SDS011;31365;48.858;8.530;2022-12-18T08:49:12;16.93;;;12.63;;
45650;SDS011;31365;48.858;8.530;2022-12-18T08:51:41;15.87;;;11.63;;
45650;SDS011;31365;48.858;8.530;2022-12-18T08:54:10;17.13;;;12.73;;
45650;SDS011;31365;48.858;8.530;2022-12-18T08:56:40;20.40;;;14.83;;
45650;SDS011;31365;48.858;8.530;2022-12-18T08:59:08;19.80;;;14.03;;
45650;SDS011;31365;48.858;8.530;2022-12-18T09:01:46;21.70;;;14.97;;
45650;SDS011;31365;48.858;8.530;2022-12-18T09:04:16;18.93;;;13.87;;
45650;SDS011;31365;48.858;8.530;2022-12-18T09:06:44;17.37;;;14.17;;
45650;SDS011;31365;48.858;8.530;2022-12-18T09:09:14;19.73;;;15.70;;
45650;SDS011;31365;48.858;8.530;2022-12-18T09:11:42;20.60;;;15.10;;
45650;SDS011;31365;48.858;8.530;2022-12-18T09:14:11;22.40;;;15.70;;
45650;SDS011;31365;48.858;8.530;2022-12-18T09:16:39;25.73;;;18.40;;
45650;SDS011;31365;48.858;8.530;2022-12-18T09:19:09;20.83;;;15.47;;
45650;SDS011;31365;48.858;8.530;2022-12-18T09:21:38;19.63;;;14.00;;
45650;SDS011;31365;48.858;8.530;2022-12-18T10:51:46;25.70;;;18.20;;
45650;SDS011;31365;48.858;8.530;2022-12-18T10:54:18;29.00;;;21.85;;
45650;SDS011;31365;48.858;8.530;2022-12-18T10:56:52;29.60;;;19.13;;
45650;SDS011;31365;48.858;8.530;2022-12-18T11:00:21;25.30;;;19.60;;
45650;SDS011;31365;48.858;8.530;2022-12-18T11:02:59;20.53;;;16.20;;
45650;SDS011;31365;48.858;8.530;2022-12-18T11:05:30;20.77;;;15.10;;
45650;SDS011;31365;48.858;8.530;2022-12-18T11:08:11;17.30;;;15.03;;
45650;SDS011;31365;48.858;8.530;2022-12-18T11:11:14;22.27;;;17.50;;
45650;SDS011;31365;48.858;8.530;2022-12-18T11:13:56;19.63;;;16.37;;
45650;SDS011;31365;48.858;8.530;2022-12-18T11:16:42;17.10;;;15.10;;
45650;SDS011;31365;48.858;8.530;2022-12-18T11:19:44;20.73;;;15.97;;
45650;SDS011;31365;48.858;8.530;2022-12-18T11:22:21;19.50;;;16.23;;
45650;SDS011;31365;48.858;8.530;2022-12-18T11:24:58;20.00;;;16.07;;
45650;SDS011;31365;48.858;8.530;2022-12-18T11:27:53;22.47;;;16.03;;
45650;SDS011;31365;48.858;8.530;2022-12-18T11:30:26;28.80;;;21.07;;
45650;SDS011;31365;48.858;8.530;2022-12-18T11:33:03;21.17;;;17.03;;
45650;SDS011;31365;48.858;8.530;2022-12-18T11:35:39;21.30;;;15.87;;
45650;SDS011;31365;48.858;8.530;2022-12-18T11:38:20;19.27;;;16.37;;
45650;SDS011;31365;48.858;8.530;2022-12-18T11:40:54;17.83;;;15.53;;
45650;SDS011;31365;48.858;8.530;2022-12-18T11:43:31;18.23;;;15.77;;
45650;SDS011;31365;48.858;8.530;2022-12-18T11:46:07;18.23;;;16.00;;
45650;SDS011;31365;48.858;8.530;2022-12-18T11:48:45;21.03;;;16.70;;
45650;SDS011;31365;48.858;8.530;2022-12-18T11:51:26;20.63;;;16.93;;
45650;SDS011;31365;48.858;8.530;2022-12-18T11:54:01;22.00;;;18.80;;
45650;SDS011;31365;48.858;8.530;2022-12-18T11:56:44;25.67;;;20.30;;
45650;SDS011;31365;48.858;8.530;2022-12-18T11:59:22;23.27;;;17.47;;
45650;SDS011;31365;48.858;8.530;2022-12-18T12:02:04;40.47;;;22.23;;
45650;SDS011;31365;48.858;8.530;2022-12-18T12:05:06;24.70;;;20.00;;
45650;SDS011;31365;48.858;8.530;2022-12-18T12:07:57;23.13;;;19.10;;
45650;SDS011;31365;48.858;8.530;2022-12-18T12:10:39;20.93;;;17.23;;
45650;SDS011;31365;48.858;8.530;2022-12-18T12:13:28;20.83;;;18.53;;
45650;SDS011;31365;48.858;8.530;2022-12-18T12:16:15;23.00;;;18.60;;
45650;SDS011;31365;48.858;8.530;2022-12-18T12:18:56;37.23;;;25.47;;
45650;SDS011;31365;48.858;8.530;2022-12-18T12:21:45;27.17;;;21.43;;
45650;SDS011;31365;48.858;8.530;2022-12-18T12:24:26;25.60;;;19.60;;
45650;SDS011;31365;48.858;8.530;2022-12-18T12:27:15;24.40;;;19.40;;
45650;SDS011;31365;48.858;8.530;2022-12-18T12:30:00;34.50;;;27.07;;
45650;SDS011;31365;48.858;8.530;2022-12-18T12:32:44;27.20;;;20.37;;
45650;SDS011;31365;48.858;8.530;2022-12-18T12:35:36;22.83;;;17.03;;
45650;SDS011;31365;48.858;8.530;2022-12-18T12:38:21;33.47;;;24.20;;
45650;SDS011;31365;48.858;8.530;2022-12-18T12:40:58;28.77;;;20.17;;
45650;SDS011;31365;48.858;8.530;2022-12-18T12:43:56;28.20;;;18.70;;
45650;SDS011;31365;48.858;8.530;2022-12-18T12:46:33;28.20;;;22.10;;
45650;SDS011;31365;48.858;8.530;2022-12-18T12:49:11;27.60;;;17.90;;
45650;SDS011;31365;48.858;8.530;2022-12-18T12:51:45;34.67;;;24.80;;
45650;SDS011;31365;48.858;8.530;2022-12-18T12:54:25;24.30;;;18.27;;
45650;SDS011;31365;48.858;8.530;2022-12-18T12:56:59;28.87;;;21.97;;
45650;SDS011;31365;48.858;8.530;2022-12-18T12:59:39;26.30;;;18.10;;
45650;SDS011;31365;48.858;8.530;2022-12-18T13:02:20;47.20;;;29.57;;
45650;SDS011;31365;48.858;8.530;2022-12-18T13:05:01;23.90;;;18.50;;
45650;SDS011;31365;48.858;8.530;2022-12-18T13:07:47;51.87;;;31.53;;
45650;SDS011;31365;48.858;8.530;2022-12-18T13:10:24;23.27;;;18.00;;
45650;SDS011;31365;48.858;8.530;2022-12-18T13:13:02;24.70;;;15.53;;
45650;SDS011;31365;48.858;8.530;2022-12-18T13:15:37;20.97;;;16.00;;
45650;SDS011;31365;48.858;8.530;2022-12-18T13:18:13;21.43;;;15.60;;
45650;SDS011;31365;48.858;8.530;2022-12-18T13:20:47;21.50;;;15.77;;
45650;SDS011;31365;48.858;8.530;2022-12-18T13:23:30;24.53;;;16.67;;
45650;SDS011;31365;48.858;8.530;2022-12-18T13:29:00;23.00;;;17.83;;
45650;SDS011;31365;48.858;8.530;2022-12-18T13:34:33;32.00;;;22.80;;
45650;SDS011;31365;48.858;8.530;2022-12-18T13:46:17;41.43;;;28.83;;
45650;SDS011;31365;48.858;8.530;2022-12-18T13:49:00;21.30;;;16.30;;
45650;SDS011;31365;48.858;8.530;2022-12-18T13:51:34;25.60;;;19.33;;
45650;SDS011;31365;48.858;8.530;2022-12-18T13:54:13;33.43;;;24.40;;
45650;SDS011;31365;48.858;8.530;2022-12-18T13:56:48;29.77;;;20.47;;
45650;SDS011;31365;48.858;8.530;2022-12-18T13:59:18;34.27;;;25.33;;
45650;SDS011;31365;48.858;8.530;2022-12-18T14:01:52;26.80;;;19.33;;
45650;SDS011;31365;48.858;8.530;2022-12-18T14:04:24;31.60;;;20.07;;
45650;SDS011;31365;48.858;8.530;2022-12-18T14:06:57;26.30;;;20.10;;
45650;SDS011;31365;48.858;8.530;2022-12-18T14:09:34;24.40;;;18.70;;
45650;SDS011;31365;48.858;8.530;2022-12-18T14:12:12;36.07;;;26.57;;
45650;SDS011;31365;48.858;8.530;2022-12-18T14:15:03;49.67;;;36.37;;
45650;SDS011;31365;48.858;8.530;2022-12-18T14:17:49;48.80;;;34.93;;
45650;SDS011;31365;48.858;8.530;2022-12-18T14:20:20;24.73;;;19.43;;
45650;SDS011;31365;48.858;8.530;2022-12-18T14:22:50;28.43;;;22.10;;
45650;SDS011;31365;48.858;8.530;2022-12-18T14:25:20;30.60;;;22.77;;
45650;SDS011;31365;48.858;8.530;2022-12-18T14:27:52;23.73;;;18.20;;
45650;SDS011;31365;48.858;8.530;2022-12-18T14:30:38;22.77;;;18.73;;
45650;SDS011;31365;48.858;8.530;2022-12-18T14:33:09;25.67;;;19.90;;
45650;SDS011;31365;48.858;8.530;2022-12-18T14:35:42;24.60;;;20.30;;
45650;SDS011;31365;48.858;8.530;2022-12-18T14:38:24;30.50;;;21.80;;
45650;SDS011;31365;48.858;8.530;2022-12-18T14:40:58;25.30;;;19.10;;
45650;SDS011;31365;48.858;8.530;2022-12-18T14:43:31;27.67;;;21.47;;
45650;SDS011;31365;48.858;8.530;2022-12-18T14:46:01;26.73;;;19.30;;
45650;SDS011;31365;48.858;8.530;2022-12-18T14:48:35;29.97;;;21.60;;
45650;SDS011;31365;48.858;8.530;2022-12-18T14:51:12;28.20;;;20.70;;
45650;SDS011;31365;48.858;8.530;2022-12-18T14:53:47;27.33;;;20.37;;
45650;SDS011;31365;48.858;8.530;2022-12-18T14:56:23;30.23;;;20.67;;
45650;SDS011;31365;48.858;8.530;2022-12-18T14:58:54;28.17;;;22.20;;
45650;SDS011;31365;48.858;8.530;2022-12-18T15:01:27;26.27;;;19.87;;
45650;SDS011;31365;48.858;8.530;2022-12-18T15:04:01;26.50;;;20.37;;
45650;SDS011;31365;48.858;8.530;2022-12-18T15:06:33;27.80;;;21.67;;
45650;SDS011;31365;48.858;8.530;2022-12-18T15:09:20;27.00;;;20.50;;
45650;SDS011;31365;48.858;8.530;2022-12-18T15:11:55;36.60;;;24.47;;
45650;SDS011;31365;48.858;8.530;2022-12-18T15:14:32;37.00;;;22.47;;
45650;SDS011;31365;48.858;8.530;2022-12-18T15:17:14;28.37;;;21.57;;
45650;SDS011;31365;48.858;8.530;2022-12-18T15:19:47;28.00;;;21.07;;
45650;SDS011;31365;48.858;8.530;2022-12-18T15:22:20;27.27;;;20.43;;
45650;SDS011;31365;48.858;8.530;2022-12-18T15:24:55;28.53;;;21.27;;
45650;SDS011;31365;48.858;8.530;2022-12-18T15:27:27;28.77;;;21.63;;
45650;SDS011;31365;48.858;8.530;2022-12-18T15:32:49;36.57;;;25.60;;
45650;SDS011;31365;48.858;8.530;2022-12-18T15:35:22;37.93;;;23.93;;
45650;SDS011;31365;48.858;8.530;2022-12-18T15:37:53;30.07;;;20.83;;
45650;SDS011;31365;48.858;8.530;2022-12-18T15:40:24;45.17;;;29.63;;
45650;SDS011;31365;48.858;8.530;2022-12-18T15:42:53;45.27;;;27.93;;
45650;SDS011;31365;48.858;8.530;2022-12-18T15:45:41;43.80;;;31.07;;
45650;SDS011;31365;48.858;8.530;2022-12-18T15:48:14;33.77;;;24.80;;
45650;SDS011;31365;48.858;8.530;2022-12-18T15:50:48;31.77;;;22.83;;
45650;SDS011;31365;48.858;8.530;2022-12-18T15:53:18;25.87;;;21.10;;
45650;SDS011;31365;48.858;8.530;2022-12-18T15:55:49;32.90;;;21.93;;
45650;SDS011;31365;48.858;8.530;2022-12-18T15:58:36;32.73;;;22.20;;
45650;SDS011;31365;48.858;8.530;2022-12-18T16:01:04;36.83;;;23.00;;
45650;SDS011;31365;48.858;8.530;2022-12-18T16:03:40;30.23;;;22.50;;
45650;SDS011;31365;48.858;8.530;2022-12-18T16:06:11;31.63;;;24.33;;
45650;SDS011;31365;48.858;8.530;2022-12-18T16:08:39;31.43;;;23.77;;
45650;SDS011;31365;48.858;8.530;2022-12-18T16:11:10;40.43;;;25.30;;
45650;SDS011;31365;48.858;8.530;2022-12-18T16:14:05;34.80;;;24.43;;
45650;SDS011;31365;48.858;8.530;2022-12-18T16:16:43;54.77;;;35.03;;
45650;SDS011;31365;48.858;8.530;2022-12-18T16:19:13;53.07;;;36.80;;
45650;SDS011;31365;48.858;8.530;2022-12-18T16:21:42;54.17;;;37.50;;
45650;SDS011;31365;48.858;8.530;2022-12-18T16:24:13;41.90;;;31.50;;
45650;SDS011;31365;48.858;8.530;2022-12-18T16:26:45;43.13;;;31.10;;
45650;SDS011;31365;48.858;8.530;2022-12-18T16:29:14;40.43;;;29.63;;
45650;SDS011;31365;48.858;8.530;2022-12-18T16:31:42;38.97;;;29.63;;
45650;SDS011;31365;48.858;8.530;2022-12-18T16:34:13;31.97;;;24.30;;
45650;SDS011;31365;48.858;8.530;2022-12-18T16:36:52;33.20;;;25.13;;
45650;SDS011;31365;48.858;8.530;2022-12-18T16:39:30;36.00;;;27.33;;
45650;SDS011;31365;48.858;8.530;2022-12-18T16:42:01;38.37;;;27.70;;
45650;SDS011;31365;48.858;8.530;2022-12-18T16:44:32;34.77;;;24.73;;
45650;SDS011;31365;48.858;8.530;2022-12-18T16:47:01;33.87;;;23.33;;
45650;SDS011;31365;48.858;8.530;2022-12-18T16:49:31;30.60;;;24.63;;
45650;SDS011;31365;48.858;8.530;2022-12-18T16:52:00;33.87;;;25.77;;
45650;SDS011;31365;48.858;8.530;2022-12-18T16:54:30;34.97;;;26.47;;
45650;SDS011;31365;48.858;8.530;2022-12-18T16:57:02;36.00;;;25.83;;
45650;SDS011;31365;48.858;8.530;2022-12-18T16:59:31;39.07;;;25.70;;